Time;durP1;ratioP1;P1;durP2;ratioP2;P2;SDS_P1;SDS_P2;PMS_P1;PMS_P2;Temp;Humidity;BMP_temperature;BMP_pressure;BME280_temperature;BME280_humidity;BME280_pressure;Samples;Min_cycle;Max_cycle;Signal;HPM_P1;HPM_P2
2022/01/25 00:33:44;;;;;;;53.50;21.20;;;4.30;99.90;;;;;;5020928;28;20179;-82
2022/01/25 00:36:13;;;;;;;50.63;19.77;;;4.20;99.90;;;;;;5003248;28;20822;-82
2022/01/25 00:38:40;;;;;;;45.47;19.40;;;4.20;99.90;;;;;;5018294;28;20245;-83
2022/01/25 00:41:06;;;;;;;45.73;19.30;;;4.20;99.90;;;;;;5002495;28;20177;-82
2022/01/25 00:43:32;;;;;;;47.17;19.73;;;4.20;99.90;;;;;;5002310;28;20203;-82
2022/01/25 00:46:02;;;;;;;50.60;20.27;;;4.20;99.90;;;;;;5003126;28;20203;-82
2022/01/25 00:48:42;;;;;;;52.73;20.97;;;4.10;99.90;;;;;;5003486;28;20260;-82
2022/01/25 00:54:03;;;;;;;48.47;19.63;;;4.20;99.90;;;;;;5020629;28;20193;-82
2022/01/25 00:56:35;;;;;;;54.17;21.17;;;4.20;99.90;;;;;;5002808;28;20204;-82
2022/01/25 00:59:06;;;;;;;53.60;19.93;;;4.20;99.90;;;;;;5003074;28;20542;-82
2022/01/25 01:01:32;;;;;;;48.70;20.33;;;4.10;99.90;;;;;;5002949;28;20293;-82
2022/01/25 01:03:58;;;;;;;48.40;20.60;;;4.10;99.90;;;;;;5002524;28;20177;-82
2022/01/25 01:06:24;;;;;;;48.03;19.13;;;4.10;99.90;;;;;;5002968;28;20207;-82
2022/01/25 01:08:50;;;;;;;45.40;20.23;;;4.10;99.90;;;;;;5001829;28;20241;-82
2022/01/25 01:11:24;;;;;;;54.00;20.33;;;4.20;99.90;;;;;;5001198;28;20208;-82
2022/01/25 01:30:24;;;;;;;49.60;20.00;;;4.10;99.90;;;;;;5019657;28;20225;-82
2022/01/25 01:43:35;;;;;;;57.30;21.03;;;4.10;99.90;;;;;;4988346;28;20220;-82
2022/01/25 01:51:18;;;;;;;51.27;21.57;;;4.10;99.90;;;;;;5019332;28;20294;-82
2022/01/25 01:53:45;;;;;;;53.70;20.80;;;4.10;99.90;;;;;;5002083;28;20569;-82
2022/01/25 01:56:11;;;;;;;53.30;20.70;;;4.00;99.90;;;;;;5001417;28;20373;-82
2022/01/25 01:58:38;;;;;;;51.60;20.53;;;4.00;99.90;;;;;;5001681;28;20254;-82
2022/01/25 02:01:06;;;;;;;50.27;19.73;;;4.10;99.90;;;;;;5001360;28;20185;-82
2022/01/25 02:03:32;;;;;;;52.83;21.00;;;4.20;99.90;;;;;;5001934;28;20176;-82
2022/01/25 02:05:57;;;;;;;52.97;20.83;;;4.20;99.90;;;;;;5001180;28;20221;-82
2022/01/25 02:08:23;;;;;;;49.13;19.37;;;4.20;99.90;;;;;;5001346;28;20228;-82
2022/01/25 02:10:49;;;;;;;51.37;20.00;;;4.20;99.90;;;;;;5001178;28;20258;-82
2022/01/25 02:13:15;;;;;;;47.60;19.37;;;4.20;99.90;;;;;;5001919;28;20177;-82
2022/01/25 02:15:44;;;;;;;56.87;20.67;;;4.20;99.90;;;;;;5002760;28;20196;-82
2022/01/25 02:23:27;;;;;;;53.50;20.03;;;4.10;99.90;;;;;;5019888;28;20227;-82
2022/01/25 02:25:57;;;;;;;56.83;20.97;;;4.10;99.90;;;;;;5001495;28;20198;-82
2022/01/25 02:28:26;;;;;;;57.53;21.33;;;4.20;99.90;;;;;;5002485;28;20171;-82
2022/01/25 02:30:52;;;;;;;51.27;20.20;;;4.20;99.90;;;;;;5005237;28;20197;-82
2022/01/25 02:33:18;;;;;;;54.70;21.63;;;4.20;99.90;;;;;;5005151;28;20211;-82
2022/01/25 02:35:44;;;;;;;51.93;20.20;;;4.10;99.90;;;;;;5005561;28;20203;-82
2022/01/25 02:38:11;;;;;;;52.10;19.93;;;4.10;99.90;;;;;;5005494;28;20211;-82
2022/01/25 02:40:37;;;;;;;50.27;19.77;;;4.20;99.90;;;;;;5005567;28;20240;-82
2022/01/25 02:43:03;;;;;;;51.50;20.23;;;4.20;99.90;;;;;;5005228;28;20204;-82
2022/01/25 02:45:34;;;;;;;50.33;20.43;;;4.30;99.90;;;;;;5005844;28;20205;-82
2022/01/25 02:50:45;;;;;;;58.00;20.50;;;4.30;99.90;;;;;;5022427;28;20199;-82
2022/01/25 02:53:10;;;;;;;52.97;19.77;;;4.30;99.90;;;;;;5005252;28;20269;-82
2022/01/25 02:55:39;;;;;;;55.50;21.30;;;4.20;99.90;;;;;;5004622;28;20218;-83
2022/01/25 02:58:05;;;;;;;52.87;20.33;;;4.20;99.90;;;;;;5003031;28;20175;-82
2022/01/25 03:00:31;;;;;;;51.23;20.00;;;4.20;99.90;;;;;;5003661;28;20176;-82
2022/01/25 03:02:57;;;;;;;56.73;21.30;;;4.20;99.90;;;;;;5001633;28;20207;-82
2022/01/25 03:05:23;;;;;;;55.83;20.63;;;4.10;99.90;;;;;;5002833;28;20672;-82
2022/01/25 03:07:49;;;;;;;53.67;20.37;;;4.10;99.90;;;;;;5008900;28;20190;-82
2022/01/25 03:10:15;;;;;;;55.83;20.67;;;4.10;99.90;;;;;;5010592;28;20214;-82
2022/01/25 03:12:46;;;;;;;51.50;19.50;;;4.10;99.90;;;;;;5009455;28;20177;-82
2022/01/25 03:15:26;;;;;;;50.47;19.23;;;4.20;99.90;;;;;;5004703;28;20199;-83
2022/01/25 03:18:06;;;;;;;50.20;18.93;;;4.20;99.90;;;;;;5004141;28;20193;-82
2022/01/25 03:20:47;;;;;;;61.07;20.33;;;4.10;99.90;;;;;;5003411;28;20644;-82
2022/01/25 03:23:19;;;;;;;50.90;18.70;;;4.10;99.90;;;;;;5003671;28;20173;-82
2022/01/25 03:25:47;;;;;;;51.67;20.53;;;4.10;99.90;;;;;;5003855;28;20199;-83
2022/01/25 03:28:13;;;;;;;51.27;18.80;;;4.10;99.90;;;;;;5004630;28;20236;-83
2022/01/25 03:30:39;;;;;;;52.50;19.77;;;4.10;99.90;;;;;;5026225;28;20210;-83
2022/01/25 03:33:05;;;;;;;50.57;19.60;;;4.20;99.90;;;;;;5012623;28;20198;-83
2022/01/25 03:35:30;;;;;;;51.53;19.87;;;4.20;99.90;;;;;;5021463;28;20721;-80
2022/01/25 03:37:56;;;;;;;50.20;19.27;;;4.20;99.90;;;;;;4999431;28;20228;-80
2022/01/25 03:40:22;;;;;;;53.57;20.00;;;4.30;99.90;;;;;;4999687;28;20234;-81
2022/01/25 03:42:48;;;;;;;51.20;20.03;;;4.20;99.90;;;;;;4999978;28;20719;-81
2022/01/25 03:45:19;;;;;;;53.50;19.27;;;4.20;99.90;;;;;;4999372;28;20193;-81
2022/01/25 03:50:32;;;;;;;51.97;19.17;;;4.20;99.90;;;;;;4976152;28;20211;-81
2022/01/25 03:52:57;;;;;;;48.77;19.20;;;4.10;99.90;;;;;;4999377;28;20172;-80
2022/01/25 03:55:23;;;;;;;53.00;20.60;;;4.10;99.90;;;;;;5018366;28;20188;-80
2022/01/25 03:57:48;;;;;;;48.93;19.27;;;4.10;99.90;;;;;;5002958;28;20167;-81
2022/01/25 04:00:15;;;;;;;50.03;19.53;;;4.10;99.90;;;;;;5002804;28;20648;-80
2022/01/25 04:02:49;;;;;;;51.10;20.10;;;4.10;99.90;;;;;;5002033;28;20184;-80
2022/01/25 04:05:21;;;;;;;60.63;20.23;;;4.10;99.90;;;;;;5003333;28;20286;-81
2022/01/25 04:07:50;;;;;;;57.77;19.83;;;4.10;99.90;;;;;;5003016;28;20172;-81
2022/01/25 04:10:20;;;;;;;55.27;20.43;;;4.10;99.90;;;;;;5002524;28;20207;-80
2022/01/25 04:12:48;;;;;;;53.67;18.90;;;4.10;99.90;;;;;;5002343;28;20600;-80
2022/01/25 04:15:14;;;;;;;55.97;21.60;;;4.10;99.90;;;;;;5002398;28;20198;-80
2022/01/25 04:17:43;;;;;;;56.07;21.23;;;4.10;99.90;;;;;;5003124;28;20169;-81
2022/01/25 04:20:21;;;;;;;54.97;20.43;;;4.20;99.90;;;;;;5003240;28;20272;-80
2022/01/25 04:25:31;;;;;;;55.77;21.47;;;4.10;99.90;;;;;;5021124;28;20199;-81
2022/01/25 04:27:57;;;;;;;52.43;19.10;;;4.20;99.90;;;;;;5005049;28;20542;-81
2022/01/25 04:30:23;;;;;;;55.67;21.57;;;4.20;99.90;;;;;;5006172;28;20219;-81
2022/01/25 04:32:55;;;;;;;53.40;20.07;;;4.10;99.90;;;;;;5006478;28;20272;-81
2022/01/25 04:54:06;;;;;;;59.80;21.33;;;4.10;99.90;;;;;;5019184;28;20178;-81
2022/01/25 04:56:39;;;;;;;54.67;21.13;;;4.20;99.90;;;;;;5001912;28;20272;-81
2022/01/25 04:59:26;;;;;;;60.50;21.43;;;4.10;99.90;;;;;;5002250;28;20185;-80
2022/01/25 05:02:02;;;;;;;59.30;21.37;;;4.20;99.90;;;;;;5001845;28;20247;-81
2022/01/25 05:04:32;;;;;;;62.47;21.67;;;4.10;99.90;;;;;;5006176;28;20175;-80
2022/01/25 05:07:08;;;;;;;54.87;19.50;;;4.20;99.90;;;;;;5000797;28;20204;-80
2022/01/25 05:09:35;;;;;;;57.07;21.90;;;4.10;99.90;;;;;;5001403;28;20190;-81
2022/01/25 05:12:02;;;;;;;53.20;20.73;;;4.20;99.90;;;;;;5000242;28;20205;-80
2022/01/25 05:14:35;;;;;;;63.27;22.33;;;4.20;99.90;;;;;;5001877;28;20171;-79
2022/01/25 05:17:05;;;;;;;61.17;24.67;;;4.10;99.90;;;;;;4999112;28;20191;-79
2022/01/25 05:22:29;;;;;;;71.73;26.03;;;4.10;99.90;;;;;;4997645;28;20167;-79
2022/01/25 05:24:55;;;;;;;77.77;26.37;;;4.10;99.90;;;;;;4979548;28;20177;-80
2022/01/25 05:27:30;;;;;;;72.93;26.93;;;4.20;99.90;;;;;;4991472;28;20200;-80
2022/01/25 05:29:55;;;;;;;74.40;26.20;;;4.20;99.90;;;;;;4996883;28;20262;-81
2022/01/25 05:32:21;;;;;;;71.73;26.40;;;4.10;99.90;;;;;;4997901;28;20213;-80
2022/01/25 05:34:47;;;;;;;76.20;26.83;;;4.20;99.90;;;;;;4997186;28;20177;-81
2022/01/25 05:37:13;;;;;;;71.53;26.40;;;4.20;99.90;;;;;;5014774;28;20245;-80
2022/01/25 05:39:38;;;;;;;78.63;27.70;;;4.10;99.90;;;;;;4998433;28;20593;-81
2022/01/25 05:47:19;;;;;;;79.93;29.30;;;4.00;99.90;;;;;;5018804;28;20199;-80
2022/01/25 05:49:45;;;;;;;79.53;27.70;;;4.00;99.90;;;;;;5000475;28;20189;-80
2022/01/25 05:52:12;;;;;;;82.23;28.37;;;4.00;99.90;;;;;;5000956;28;20185;-80
2022/01/25 05:54:39;;;;;;;82.17;28.87;;;4.00;99.90;;;;;;5000644;28;20177;-81
2022/01/25 05:57:06;;;;;;;89.27;30.40;;;4.00;99.90;;;;;;5000153;28;20197;-80
2022/01/25 05:59:32;;;;;;;87.63;29.50;;;4.00;99.90;;;;;;5000773;28;20179;-80
2022/01/25 06:01:58;;;;;;;85.07;30.07;;;4.00;99.90;;;;;;5000519;28;20193;-80
2022/01/25 06:04:24;;;;;;;91.77;30.50;;;4.00;99.90;;;;;;5003792;28;20181;-80
2022/01/25 06:06:51;;;;;;;85.70;29.07;;;4.00;99.90;;;;;;5001354;28;20201;-80
2022/01/25 06:09:17;;;;;;;88.33;29.53;;;4.00;99.90;;;;;;5000988;28;20239;-80
2022/01/25 06:11:43;;;;;;;88.53;29.43;;;4.00;99.90;;;;;;5001038;28;20295;-80
2022/01/25 06:14:08;;;;;;;91.57;29.83;;;4.00;99.90;;;;;;5001277;28;20208;-80
2022/01/25 06:16:34;;;;;;;91.57;31.03;;;3.90;99.90;;;;;;5001873;28;20200;-80
2022/01/25 06:19:00;;;;;;;88.47;31.07;;;3.90;99.90;;;;;;5001761;28;20170;-81
2022/01/25 06:21:26;;;;;;;83.83;30.03;;;4.00;99.90;;;;;;5001376;28;20175;-80
2022/01/25 06:23:52;;;;;;;84.93;30.30;;;4.00;99.90;;;;;;5001487;28;20502;-80
2022/01/25 06:26:18;;;;;;;91.83;30.20;;;4.00;99.90;;;;;;5002026;28;20333;-80
2022/01/25 06:28:44;;;;;;;83.20;30.00;;;3.90;99.90;;;;;;5001618;28;20215;-80
2022/01/25 06:31:10;;;;;;;90.30;31.43;;;3.90;99.90;;;;;;5001798;28;20214;-80
2022/01/25 06:33:40;;;;;;;86.90;29.20;;;3.90;99.90;;;;;;5001676;28;20256;-80
2022/01/25 06:36:06;;;;;;;89.33;30.47;;;3.90;99.90;;;;;;5002309;28;20255;-80
2022/01/25 06:38:32;;;;;;;91.33;31.97;;;3.90;99.90;;;;;;5002239;28;20594;-80
2022/01/25 06:40:57;;;;;;;89.40;30.23;;;3.90;99.90;;;;;;5001857;28;20643;-81
2022/01/25 06:43:23;;;;;;;87.00;31.13;;;3.90;99.90;;;;;;5002835;28;20827;-81
2022/01/25 06:45:56;;;;;;;87.30;30.03;;;3.90;99.90;;;;;;5002535;28;20195;-81
2022/01/25 06:48:22;;;;;;;87.07;29.87;;;3.90;99.90;;;;;;5002330;28;20175;-81
2022/01/25 06:50:48;;;;;;;93.57;30.60;;;3.90;99.90;;;;;;5003002;28;20206;-81
2022/01/25 06:53:13;;;;;;;83.30;30.37;;;3.90;99.90;;;;;;5002733;28;20170;-80
2022/01/25 06:55:40;;;;;;;87.27;29.33;;;4.00;99.90;;;;;;5003381;28;20733;-81
2022/01/25 06:58:06;;;;;;;83.07;28.63;;;3.90;99.90;;;;;;5002703;28;20181;-80
2022/01/25 07:00:31;;;;;;;88.33;29.57;;;4.00;99.90;;;;;;5003942;28;20175;-81
2022/01/25 07:02:57;;;;;;;79.33;29.03;;;3.90;99.90;;;;;;5004119;28;20262;-80
2022/01/25 07:05:26;;;;;;;88.80;29.57;;;3.90;99.90;;;;;;5004215;28;20266;-80
2022/01/25 07:07:53;;;;;;;77.87;27.43;;;3.80;99.90;;;;;;5011296;28;20176;-80
2022/01/25 07:10:20;;;;;;;82.33;28.53;;;3.80;99.90;;;;;;5001825;28;20188;-79
2022/01/25 07:12:45;;;;;;;83.70;28.73;;;3.90;99.90;;;;;;4998490;28;20633;-79
2022/01/25 07:15:12;;;;;;;95.73;30.27;;;3.90;99.90;;;;;;4998464;28;20193;-79
2022/01/25 07:17:39;;;;;;;87.37;28.13;;;3.90;99.90;;;;;;4998705;28;20175;-79
2022/01/25 07:20:06;;;;;;;79.40;28.27;;;3.90;99.90;;;;;;4998811;28;20174;-79
2022/01/25 07:22:33;;;;;;;84.77;29.00;;;3.90;99.90;;;;;;5003423;28;20600;-80
2022/01/25 07:24:59;;;;;;;79.73;27.83;;;3.90;99.90;;;;;;5004691;28;20630;-79
2022/01/25 07:27:24;;;;;;;82.33;29.07;;;3.90;99.90;;;;;;5015344;28;20170;-79
2022/01/25 07:29:50;;;;;;;76.47;27.40;;;3.90;99.90;;;;;;4997690;28;20528;-79
2022/01/25 07:32:16;;;;;;;82.23;29.83;;;3.90;99.90;;;;;;4997440;28;20249;-79
2022/01/25 07:34:41;;;;;;;86.20;29.83;;;3.90;99.90;;;;;;4997690;28;20177;-79
2022/01/25 07:37:07;;;;;;;87.53;30.37;;;3.90;99.90;;;;;;4998123;28;20201;-79
2022/01/25 07:39:33;;;;;;;79.57;28.73;;;3.80;99.90;;;;;;5003042;28;20171;-81
2022/01/25 07:41:59;;;;;;;81.90;26.77;;;3.80;99.90;;;;;;5003140;28;20264;-82
2022/01/25 07:44:29;;;;;;;81.13;28.60;;;3.90;99.90;;;;;;5002298;28;20271;-84
2022/01/25 07:46:57;;;;;;;82.63;28.40;;;3.80;99.90;;;;;;5003687;28;20204;-84
2022/01/25 07:49:24;;;;;;;81.20;28.60;;;3.80;99.90;;;;;;5007082;28;20663;-84
2022/01/25 07:51:51;;;;;;;86.00;27.37;;;3.80;99.90;;;;;;5006445;28;20298;-82
2022/01/25 07:54:16;;;;;;;83.00;29.07;;;3.80;99.90;;;;;;5004801;28;20176;-84
2022/01/25 07:56:42;;;;;;;86.77;28.83;;;3.80;99.90;;;;;;5003259;28;20245;-82
2022/01/25 07:59:08;;;;;;;83.20;29.67;;;3.80;99.90;;;;;;5003716;28;20179;-82
2022/01/25 08:01:34;;;;;;;98.57;28.47;;;3.80;99.90;;;;;;5003229;28;20271;-82
2022/01/25 08:03:59;;;;;;;87.07;28.50;;;3.70;99.90;;;;;;4997622;28;20191;-82
2022/01/25 08:06:25;;;;;;;82.50;27.87;;;3.80;99.90;;;;;;4994900;28;20200;-81
2022/01/25 08:08:52;;;;;;;86.27;28.23;;;3.80;99.90;;;;;;4997236;28;20275;-82
2022/01/25 08:11:19;;;;;;;81.10;26.23;;;3.80;99.90;;;;;;5004571;28;20220;-84
2022/01/25 08:13:49;;;;;;;82.00;27.60;;;3.80;99.90;;;;;;5000608;28;20189;-82
2022/01/25 08:16:18;;;;;;;88.20;27.87;;;3.80;99.90;;;;;;4998547;28;20205;-81
2022/01/25 08:18:43;;;;;;;89.47;29.30;;;3.80;99.90;;;;;;4998616;28;20566;-83
2022/01/25 08:21:09;;;;;;;82.53;28.03;;;3.80;99.90;;;;;;5018469;28;20250;-85
2022/01/25 08:23:35;;;;;;;79.83;26.07;;;3.80;99.90;;;;;;5000089;28;20185;-82
2022/01/25 08:26:01;;;;;;;89.27;27.37;;;3.80;99.90;;;;;;5007237;28;20231;-82
2022/01/25 08:28:27;;;;;;;85.67;27.23;;;3.70;99.90;;;;;;5008046;28;20186;-82
2022/01/25 08:30:53;;;;;;;78.73;27.73;;;3.70;99.90;;;;;;5007501;28;20194;-84
2022/01/25 08:33:19;;;;;;;81.90;27.47;;;3.80;99.90;;;;;;5004900;28;20436;-84
2022/01/25 08:35:45;;;;;;;82.50;28.17;;;3.80;99.90;;;;;;5006689;28;20195;-84
2022/01/25 08:38:10;;;;;;;81.07;27.50;;;3.80;99.90;;;;;;5004409;28;20269;-86
2022/01/25 08:40:36;;;;;;;78.53;26.77;;;3.90;99.90;;;;;;5006017;28;20175;-84
2022/01/25 08:43:03;;;;;;;74.77;23.47;;;3.80;99.90;;;;;;5005430;28;20271;-84
2022/01/25 08:45:28;;;;;;;82.70;25.47;;;3.80;99.90;;;;;;5007434;28;20199;-84
2022/01/25 08:47:54;;;;;;;86.67;28.17;;;3.90;99.90;;;;;;5006631;28;20260;-84
2022/01/25 08:50:20;;;;;;;84.20;27.70;;;3.80;99.90;;;;;;5008308;28;20266;-84
2022/01/25 08:52:46;;;;;;;81.00;27.67;;;3.80;99.90;;;;;;5007828;28;20761;-82
2022/01/25 08:55:12;;;;;;;76.27;23.77;;;3.90;99.90;;;;;;5007381;28;20226;-82
2022/01/25 08:57:38;;;;;;;76.93;24.73;;;3.90;99.90;;;;;;5007484;28;20201;-82
2022/01/25 09:00:12;;;;;;;74.47;23.93;;;3.90;99.90;;;;;;5007753;28;20858;-84
2022/01/25 09:02:39;;;;;;;70.17;22.80;;;4.00;99.90;;;;;;5007386;28;20199;-84
2022/01/25 09:05:06;;;;;;;69.43;23.03;;;3.90;99.90;;;;;;5007859;28;20202;-85
2022/01/25 09:07:31;;;;;;;68.43;23.27;;;3.90;99.90;;;;;;5008118;28;20273;-85
2022/01/25 09:09:57;;;;;;;70.03;24.17;;;4.00;99.90;;;;;;5008677;28;20187;-85
2022/01/25 09:12:23;;;;;;;70.70;24.30;;;4.00;99.90;;;;;;5008740;28;20168;-84
2022/01/25 09:14:49;;;;;;;82.07;23.63;;;4.10;99.90;;;;;;5009090;28;20241;-85
2022/01/25 09:17:14;;;;;;;76.93;24.23;;;4.00;99.90;;;;;;5007534;28;20211;-84
2022/01/25 09:19:41;;;;;;;74.93;25.77;;;4.10;99.90;;;;;;5007660;28;20192;-84
2022/01/25 09:22:08;;;;;;;79.83;25.57;;;4.00;99.90;;;;;;5008023;28;20237;-82
2022/01/25 09:24:34;;;;;;;79.50;25.47;;;3.90;99.90;;;;;;5007945;28;20271;-82
2022/01/25 09:27:02;;;;;;;79.07;26.87;;;3.90;99.90;;;;;;5008706;28;20216;-82
2022/01/25 09:29:28;;;;;;;75.27;25.00;;;4.00;99.90;;;;;;5005418;28;20204;-84
2022/01/25 09:31:53;;;;;;;81.90;27.57;;;3.90;99.90;;;;;;5003486;28;20562;-83
2022/01/25 09:34:23;;;;;;;77.77;26.60;;;4.00;99.90;;;;;;5001611;28;20609;-81
2022/01/25 09:36:50;;;;;;;81.90;26.70;;;3.90;99.90;;;;;;5001081;28;20195;-82
2022/01/25 09:39:16;;;;;;;73.43;25.70;;;3.90;99.90;;;;;;5002652;28;20188;-82
2022/01/25 09:41:42;;;;;;;82.30;25.97;;;4.00;99.90;;;;;;5004678;28;20169;-84
2022/01/25 09:44:08;;;;;;;76.87;25.27;;;4.00;99.90;;;;;;5002986;28;20197;-84
2022/01/25 09:46:33;;;;;;;73.10;23.53;;;3.90;99.90;;;;;;5003118;28;20291;-84
2022/01/25 09:48:59;;;;;;;67.57;23.90;;;3.90;99.90;;;;;;5003548;28;20173;-84
2022/01/25 09:51:26;;;;;;;76.63;25.03;;;3.90;99.90;;;;;;5005600;28;20480;-85
2022/01/25 09:53:52;;;;;;;77.90;24.97;;;4.00;99.90;;;;;;5003122;28;20262;-84
2022/01/25 09:56:18;;;;;;;80.67;25.63;;;4.10;99.90;;;;;;5005219;28;20628;-82
2022/01/25 09:58:44;;;;;;;78.33;26.40;;;4.00;99.90;;;;;;5003620;28;20174;-82
2022/01/25 10:01:11;;;;;;;73.87;24.07;;;4.00;99.90;;;;;;5003904;28;20184;-82
2022/01/25 10:03:41;;;;;;;70.73;23.17;;;4.00;99.90;;;;;;5004714;28;20177;-83
2022/01/25 10:06:19;;;;;;;71.07;23.60;;;4.00;99.90;;;;;;5005334;28;20281;-83
2022/01/25 10:08:50;;;;;;;71.53;24.60;;;4.00;99.90;;;;;;5006964;28;20187;-83
2022/01/25 10:11:16;;;;;;;75.03;24.40;;;4.00;99.90;;;;;;5004069;28;20201;-83
2022/01/25 10:13:51;;;;;;;72.57;24.67;;;4.00;99.90;;;;;;5004096;28;20265;-82
2022/01/25 10:16:20;;;;;;;77.20;25.47;;;4.00;99.90;;;;;;5002246;28;20287;-82
2022/01/25 10:18:58;;;;;;;86.70;26.63;;;4.00;99.90;;;;;;5000018;28;20200;-82
2022/01/25 10:21:27;;;;;;;75.50;25.23;;;4.10;99.90;;;;;;5000889;28;20205;-83
2022/01/25 10:24:05;;;;;;;73.83;25.03;;;4.10;99.90;;;;;;4999371;28;20404;-84
2022/01/25 10:26:59;;;;;;;72.67;24.27;;;4.10;99.90;;;;;;5000067;28;20194;-84
2022/01/25 10:29:30;;;;;;;70.63;24.17;;;4.20;99.90;;;;;;4994292;28;20751;-84
2022/01/25 10:32:05;;;;;;;73.87;24.60;;;4.20;99.90;;;;;;4999674;28;20204;-84
2022/01/25 10:34:38;;;;;;;77.57;25.17;;;4.20;99.90;;;;;;5001467;28;20647;-84
2022/01/25 10:37:16;;;;;;;80.37;26.10;;;4.20;99.90;;;;;;4999689;28;20201;-84
2022/01/25 10:39:47;;;;;;;82.63;25.50;;;4.20;99.90;;;;;;5002092;28;20179;-85
2022/01/25 10:42:21;;;;;;;78.67;25.40;;;4.00;99.90;;;;;;5004703;28;20718;-84
2022/01/25 10:44:49;;;;;;;76.00;24.53;;;4.10;99.90;;;;;;5003951;28;20186;-84
2022/01/25 10:47:15;;;;;;;72.00;24.50;;;4.10;99.90;;;;;;5002635;28;20552;-85
2022/01/25 10:49:46;;;;;;;76.90;24.43;;;4.20;99.90;;;;;;4998149;28;20593;-85
2022/01/25 10:52:12;;;;;;;75.20;24.10;;;4.20;99.90;;;;;;4998850;28;20211;-84
2022/01/25 10:54:40;;;;;;;75.60;24.60;;;4.20;99.90;;;;;;4999108;28;20171;-85
2022/01/25 10:57:20;;;;;;;74.40;24.20;;;4.10;99.90;;;;;;4998405;28;20383;-82
2022/01/25 10:59:58;;;;;;;80.73;23.70;;;4.10;99.90;;;;;;4999166;28;20240;-82
2022/01/25 11:02:24;;;;;;;73.07;22.67;;;4.00;99.90;;;;;;4998025;28;20182;-82
2022/01/25 11:04:52;;;;;;;80.97;24.07;;;4.10;99.90;;;;;;4998506;28;20179;-82
2022/01/25 11:07:18;;;;;;;77.67;23.40;;;4.10;99.90;;;;;;4999729;28;20184;-83
2022/01/25 11:09:45;;;;;;;69.20;21.90;;;4.10;99.90;;;;;;5002330;28;20182;-83
2022/01/25 11:12:17;;;;;;;75.53;23.60;;;4.10;99.90;;;;;;5000722;28;20208;-85
2022/01/25 11:14:50;;;;;;;72.40;23.27;;;4.00;99.90;;;;;;5000599;28;20191;-83
2022/01/25 11:17:23;;;;;;;70.37;22.83;;;4.10;99.90;;;;;;4999143;28;20177;-85
2022/01/25 11:19:50;;;;;;;69.87;22.50;;;4.10;99.90;;;;;;4998817;28;20247;-82
2022/01/25 11:22:20;;;;;;;73.03;23.63;;;4.10;99.90;;;;;;4998495;28;20180;-82
2022/01/25 11:24:51;;;;;;;81.37;24.17;;;4.00;99.90;;;;;;4998871;28;20189;-82
2022/01/25 11:27:18;;;;;;;74.23;23.13;;;4.00;99.90;;;;;;5002043;28;20254;-84
2022/01/25 11:29:45;;;;;;;74.10;23.33;;;4.00;99.90;;;;;;4998755;28;20256;-82
2022/01/25 11:32:14;;;;;;;72.53;23.87;;;4.00;99.90;;;;;;4998782;28;20667;-82
2022/01/25 11:34:43;;;;;;;78.30;23.27;;;4.00;99.90;;;;;;4999022;28;20179;-82
2022/01/25 11:37:09;;;;;;;79.30;22.73;;;4.00;99.90;;;;;;4996819;28;20555;-84
2022/01/25 11:39:40;;;;;;;72.23;24.10;;;4.10;99.90;;;;;;4998067;28;20205;-84
2022/01/25 11:42:09;;;;;;;70.43;22.53;;;4.00;99.90;;;;;;4997487;28;20181;-84
2022/01/25 11:44:35;;;;;;;71.53;23.37;;;4.10;99.90;;;;;;4996476;28;20598;-84
2022/01/25 11:47:16;;;;;;;78.37;23.33;;;4.10;99.90;;;;;;4978515;28;20201;-85
2022/01/25 11:49:50;;;;;;;74.70;23.77;;;4.10;99.90;;;;;;4979026;28;20183;-85
2022/01/25 11:52:16;;;;;;;70.50;21.60;;;4.10;99.90;;;;;;4978236;28;20209;-84
2022/01/25 11:54:43;;;;;;;69.93;22.63;;;4.20;99.90;;;;;;4996385;28;20173;-85
2022/01/25 11:57:21;;;;;;;72.37;22.87;;;4.10;99.90;;;;;;4978673;28;20193;-84
2022/01/25 11:59:56;;;;;;;75.23;23.90;;;4.10;99.90;;;;;;4978806;28;20181;-84
2022/01/25 12:02:45;;;;;;;73.77;22.90;;;4.10;99.90;;;;;;4979313;28;20201;-85
2022/01/25 12:05:14;;;;;;;69.53;21.87;;;4.20;99.90;;;;;;4978736;28;20686;-85
2022/01/25 12:08:00;;;;;;;80.57;24.50;;;4.20;99.90;;;;;;4978731;28;20604;-84
2022/01/25 12:10:34;;;;;;;72.27;22.33;;;4.20;99.90;;;;;;4979505;28;20202;-85
2022/01/25 12:13:23;;;;;;;65.97;22.53;;;4.20;99.90;;;;;;4980234;28;20177;-84
2022/01/25 12:16:21;;;;;;;74.77;23.80;;;4.20;99.90;;;;;;4982405;28;20197;-83
2022/01/25 12:19:01;;;;;;;75.73;23.20;;;4.10;99.90;;;;;;4983679;28;20172;-83
2022/01/25 12:21:45;;;;;;;71.37;22.03;;;4.20;99.90;;;;;;4983416;28;20220;-83
2022/01/25 12:24:25;;;;;;;77.03;24.03;;;4.30;99.90;;;;;;4984958;28;20177;-82
2022/01/25 12:27:00;;;;;;;73.37;21.70;;;4.20;99.90;;;;;;4986210;28;20195;-83
2022/01/25 12:29:39;;;;;;;70.23;22.00;;;4.10;99.90;;;;;;4985449;28;20193;-82
2022/01/25 12:32:18;;;;;;;80.27;24.73;;;4.00;99.90;;;;;;4983635;28;20192;-82
2022/01/25 12:35:05;;;;;;;73.20;22.07;;;3.90;99.90;;;;;;4983132;28;20175;-82
2022/01/25 12:37:43;;;;;;;74.60;22.77;;;4.00;99.90;;;;;;4979961;28;20309;-81
2022/01/25 12:40:31;;;;;;;72.47;21.67;;;4.00;99.90;;;;;;4981962;28;20188;-81
2022/01/25 12:43:05;;;;;;;72.30;23.07;;;3.90;99.90;;;;;;4982379;28;20166;-82
2022/01/25 12:45:40;;;;;;;70.80;22.63;;;4.00;99.90;;;;;;4999360;28;20199;-82
2022/01/25 12:48:09;;;;;;;72.70;23.50;;;4.00;99.90;;;;;;5002915;28;20162;-83
2022/01/25 12:50:37;;;;;;;73.50;22.77;;;4.10;99.90;;;;;;5004950;28;20291;-84
2022/01/25 12:53:05;;;;;;;70.40;20.60;;;4.20;99.90;;;;;;5005126;28;20262;-84
2022/01/25 12:55:34;;;;;;;75.37;22.93;;;4.10;99.90;;;;;;5004829;28;20189;-82
2022/01/25 12:58:02;;;;;;;71.63;22.03;;;4.20;99.90;;;;;;5004540;28;20263;-83
2022/01/25 13:00:35;;;;;;;68.40;21.07;;;4.20;99.90;;;;;;5003717;28;20602;-83
2022/01/25 13:03:21;;;;;;;76.20;22.77;;;4.20;99.90;;;;;;5004629;28;20168;-83
2022/01/25 13:05:53;;;;;;;72.57;22.57;;;4.10;99.90;;;;;;5004608;28;20192;-84
2022/01/25 13:08:29;;;;;;;76.63;22.97;;;4.10;99.90;;;;;;5005229;28;20185;-82
2022/01/25 13:11:19;;;;;;;75.87;23.47;;;3.90;99.90;;;;;;5004767;28;20196;-82
2022/01/25 13:13:59;;;;;;;72.27;22.50;;;4.10;99.90;;;;;;5000428;28;20598;-83
2022/01/25 13:16:41;;;;;;;78.17;22.30;;;4.20;99.90;;;;;;5006382;28;20278;-82
2022/01/25 13:19:07;;;;;;;69.80;21.60;;;4.10;99.90;;;;;;4998810;28;20190;-83
2022/01/25 13:21:59;;;;;;;67.97;22.27;;;4.00;99.90;;;;;;5004731;28;20186;-83
2022/01/25 13:24:33;;;;;;;72.73;22.23;;;4.00;99.90;;;;;;5001302;28;20662;-83
2022/01/25 13:27:04;;;;;;;66.13;21.67;;;4.10;99.90;;;;;;5011883;28;20198;-84
2022/01/25 13:32:24;;;;;;;66.20;20.83;;;4.10;99.90;;;;;;5022707;28;20230;-83
2022/01/25 13:35:14;;;;;;;72.73;23.00;;;4.20;99.90;;;;;;5002775;28;20204;-83
2022/01/25 13:37:42;;;;;;;75.10;22.07;;;4.20;99.90;;;;;;5009030;28;20173;-83
2022/01/25 13:40:09;;;;;;;71.53;22.97;;;4.00;99.90;;;;;;5002786;28;20181;-83
2022/01/25 13:42:57;;;;;;;71.17;22.60;;;4.10;99.90;;;;;;5002568;28;20176;-84
2022/01/25 13:48:19;;;;;;;71.07;23.17;;;4.10;99.90;;;;;;5030313;28;20176;-83
2022/01/25 13:50:45;;;;;;;69.03;21.87;;;4.10;99.90;;;;;;5010648;28;20216;-84
2022/01/25 13:53:10;;;;;;;71.47;23.30;;;4.10;99.90;;;;;;5012974;28;20178;-84
2022/01/25 13:55:37;;;;;;;70.33;20.87;;;3.90;99.90;;;;;;5012335;28;20220;-83
2022/01/25 13:58:23;;;;;;;69.87;21.97;;;4.00;99.90;;;;;;5010320;28;20184;-83
2022/01/25 14:00:51;;;;;;;73.03;21.53;;;3.90;99.90;;;;;;5028707;28;20172;-84
2022/01/25 14:03:17;;;;;;;78.43;23.60;;;3.80;99.90;;;;;;5011741;28;20183;-83
2022/01/25 14:05:43;;;;;;;71.70;22.13;;;3.90;99.90;;;;;;5010111;28;20690;-84
2022/01/25 14:08:09;;;;;;;77.00;23.23;;;3.90;99.90;;;;;;5005286;28;20183;-83
2022/01/25 14:10:35;;;;;;;74.50;21.83;;;3.90;99.90;;;;;;5002477;28;20222;-87
2022/01/25 14:24:06;;;;;;;73.57;22.63;;;4.00;99.90;;;;;;5030066;28;20173;-83
2022/01/25 14:26:32;;;;;;;75.30;23.80;;;4.10;99.90;;;;;;5015905;28;20199;-83
2022/01/25 14:29:12;;;;;;;73.77;22.50;;;4.10;99.90;;;;;;5001539;28;20201;-81
2022/01/25 14:31:43;;;;;;;75.13;22.30;;;4.10;99.90;;;;;;5004217;28;20207;-86
2022/01/25 14:34:11;;;;;;;84.47;23.37;;;4.10;99.90;;;;;;5007668;28;20187;-82
2022/01/25 14:36:43;;;;;;;83.83;24.33;;;4.00;99.90;;;;;;5001383;28;20697;-82
2022/01/25 14:39:09;;;;;;;70.13;20.70;;;4.00;99.90;;;;;;5002038;28;20173;-82
2022/01/25 14:41:37;;;;;;;78.07;22.73;;;4.00;99.90;;;;;;5008641;28;20179;-81
2022/01/25 14:44:07;;;;;;;69.53;22.27;;;3.90;99.90;;;;;;5008770;28;20245;-85
2022/01/25 14:46:40;;;;;;;79.17;23.57;;;3.90;99.90;;;;;;5007146;28;20202;-85
2022/01/25 14:49:20;;;;;;;73.10;23.10;;;3.90;99.90;;;;;;5006165;28;20177;-85
2022/01/25 14:51:52;;;;;;;77.87;21.77;;;4.00;99.90;;;;;;5006721;28;20212;-84